Burlington, Vermont
Current Conditions -  °F | °C
As of 10:54 AM on Wednesday 28 Jan 2015 (Local Time) from KBTV Reporting Station
Few Clouds Few Clouds  
Wind Chill: -2°   Ceiling: Unl
Heat Index: 12°   Visibility: 10mi
Dew Point: -6°   Wind: 12mph
Humidity: 44%   Direction: 20°NNE
Pressure: 30.16"   Gusts: NA
Location:  44.48°N, 73.21°W
Report Text: KBTV 281554Z 02010KT 10SM FEW100 M11/M21 A3016 RMK AO2 SLP220 ACSL E-S T11111211
Loading
Personal Weather Stations






























Interactive Weather Map New forecast layout! Learn more

10-Day Weather Forecast

Advertisements
Track Severe Weather on mobile